Time;durP1;ratioP1;P1;durP2;ratioP2;P2;SDS_P1;SDS_P2;PMS_P1;PMS_P2;Temp;Humidity;BMP_temperature;BMP_pressure;BME280_temperature;BME280_humidity;BME280_pressure;Samples;Min_cycle;Max_cycle;Signal;HPM_P1;HPM_P2
2022/12/29 00:02:13;;;;;;;2.10;1.20;;;20.80;64.40;;;;;;5009357;28;88278;-85
2022/12/29 00:04:39;;;;;;;1.83;1.15;;;20.80;64.50;;;;;;5008393;27;87656;-86
2022/12/29 00:07:05;;;;;;;6.03;1.45;;;20.80;64.40;;;;;;5008054;27;88275;-85
2022/12/29 00:09:31;;;;;;;1.75;1.08;;;20.80;64.40;;;;;;5008914;27;87290;-84
2022/12/29 00:11:57;;;;;;;2.88;1.17;;;20.80;64.60;;;;;;5006959;28;90626;-86
2022/12/29 00:17:07;;;;;;;1.70;1.05;;;20.70;64.50;;;;;;5037753;27;87116;-85
2022/12/29 00:36:10;;;;;;;1.10;0.90;;;20.70;64.80;;;;;;5011088;27;87284;-85
2022/12/29 00:44:10;;;;;;;1.55;0.85;;;20.70;64.80;;;;;;5012271;28;87352;-86
2022/12/29 00:46:41;;;;;;;1.92;1.15;;;20.60;64.70;;;;;;5011495;27;87825;-84
2022/12/29 00:51:55;;;;;;;1.23;1.10;;;20.60;64.90;;;;;;5011983;27;86903;-85
2022/12/29 00:54:21;;;;;;;2.33;1.20;;;20.60;64.90;;;;;;5011348;27;87392;-85
2022/12/29 00:56:48;;;;;;;3.05;1.20;;;20.60;64.90;;;;;;5010913;27;87955;-85
2022/12/29 00:59:14;;;;;;;1.33;0.98;;;20.60;64.70;;;;;;5012360;28;88271;-85
2022/12/29 01:01:40;;;;;;;1.38;1.10;;;20.60;64.80;;;;;;5011644;27;87739;-85
2022/12/29 01:04:07;;;;;;;0.90;0.73;;;20.50;64.90;;;;;;5011188;27;88173;-86
2022/12/29 01:06:35;;;;;;;2.05;1.27;;;20.50;65.00;;;;;;5011249;27;87466;-85
2022/12/29 01:11:45;;;;;;;1.90;1.00;;;20.50;64.80;;;;;;5011173;27;87444;-86
2022/12/29 01:14:11;;;;;;;1.38;0.95;;;20.50;64.90;;;;;;5012248;28;88240;-85
2022/12/29 01:16:36;;;;;;;1.63;1.00;;;20.50;64.80;;;;;;5011598;27;87213;-86
2022/12/29 01:19:02;;;;;;;2.00;1.10;;;20.50;64.90;;;;;;5011823;27;87545;-85
2022/12/29 01:21:28;;;;;;;1.15;0.85;;;20.50;65.00;;;;;;5011166;27;87365;-85
2022/12/29 01:23:53;;;;;;;2.78;1.23;;;20.50;64.80;;;;;;5010818;27;89034;-85
2022/12/29 01:26:19;;;;;;;1.48;1.05;;;20.50;64.70;;;;;;5011970;27;88162;-85
2022/12/29 01:28:45;;;;;;;1.95;1.05;;;20.40;64.70;;;;;;5010738;28;87764;-85
2022/12/29 01:31:13;;;;;;;1.80;1.08;;;20.40;64.60;;;;;;5011597;27;87808;-86
2022/12/29 01:33:39;;;;;;;1.48;1.10;;;20.40;64.60;;;;;;5010769;27;88122;-85
2022/12/29 01:36:12;;;;;;;1.85;1.10;;;20.40;64.80;;;;;;5011352;27;88103;-85
2022/12/29 01:38:39;;;;;;;1.45;0.90;;;20.40;64.80;;;;;;5011480;27;87713;-85
2022/12/29 01:41:07;;;;;;;1.52;1.00;;;20.40;64.70;;;;;;5012553;28;86863;-86
2022/12/29 01:43:40;;;;;;;2.47;1.13;;;20.40;64.70;;;;;;5010893;27;90072;-85
2022/12/29 01:46:30;;;;;;;3.03;1.10;;;20.40;64.70;;;;;;5010839;27;88289;-86
2022/12/29 01:49:13;;;;;;;1.95;1.02;;;20.40;65.00;;;;;;5010613;27;88097;-85
2022/12/29 01:51:52;;;;;;;3.08;1.33;;;20.30;64.90;;;;;;5009659;28;90694;-86
2022/12/29 01:54:30;;;;;;;1.23;0.93;;;20.30;64.80;;;;;;5010914;27;87540;-85
2022/12/29 01:57:01;;;;;;;1.13;1.00;;;20.40;65.00;;;;;;5010818;27;88501;-85
2022/12/29 01:59:31;;;;;;;1.27;0.82;;;20.40;65.00;;;;;;5010945;27;87102;-86
2022/12/29 02:01:57;;;;;;;1.30;1.00;;;20.30;64.80;;;;;;5011967;28;87323;-86
2022/12/29 02:04:24;;;;;;;1.17;1.00;;;20.30;64.90;;;;;;5010781;27;88131;-85
2022/12/29 02:06:55;;;;;;;1.75;1.10;;;20.30;64.90;;;;;;5010620;27;87703;-86
2022/12/29 02:09:21;;;;;;;1.55;1.10;;;20.30;64.80;;;;;;5010395;27;87074;-85
2022/12/29 02:11:47;;;;;;;1.25;0.90;;;20.30;64.80;;;;;;5011418;27;87302;-86
2022/12/29 02:14:14;;;;;;;1.20;0.90;;;20.20;64.80;;;;;;5010318;28;89652;-87
2022/12/29 02:16:51;;;;;;;1.65;1.10;;;20.30;64.90;;;;;;5010075;27;89274;-85
2022/12/29 02:19:26;;;;;;;1.25;0.90;;;20.30;64.80;;;;;;5010827;27;87864;-84
2022/12/29 02:22:13;;;;;;;2.25;0.80;;;20.30;64.90;;;;;;5010030;27;92010;-86
2022/12/29 02:25:00;;;;;;;1.00;0.90;;;20.20;64.60;;;;;;5010013;27;88410;-86
2022/12/29 02:27:53;;;;;;;1.13;1.00;;;20.20;64.80;;;;;;5010525;27;87652;-85
2022/12/29 02:30:31;;;;;;;1.85;1.00;;;20.20;64.60;;;;;;5010541;27;87560;-86
2022/12/29 02:32:57;;;;;;;1.75;1.35;;;20.20;64.90;;;;;;5011532;27;87615;-86
2022/12/29 02:35:54;;;;;;;1.40;0.85;;;20.20;64.60;;;;;;5009942;27;87577;-85
2022/12/29 02:38:41;;;;;;;0.93;0.82;;;20.20;64.80;;;;;;5011208;27;87920;-86
2022/12/29 02:41:19;;;;;;;1.73;0.90;;;20.20;64.70;;;;;;5009021;28;88286;-84
2022/12/29 02:43:54;;;;;;;1.27;1.10;;;20.20;64.80;;;;;;5009971;28;92149;-86
2022/12/29 02:46:30;;;;;;;1.13;0.88;;;20.20;64.70;;;;;;5009513;27;87945;-86
2022/12/29 02:49:26;;;;;;;1.27;0.80;;;20.20;64.70;;;;;;5007998;27;87828;-86
2022/12/29 02:52:13;;;;;;;1.17;0.90;;;20.20;64.80;;;;;;5006887;27;87430;-86
2022/12/29 02:54:41;;;;;;;1.25;0.95;;;20.10;64.80;;;;;;5006593;27;87483;-85
2022/12/29 02:57:28;;;;;;;0.82;0.80;;;20.10;64.90;;;;;;5006732;27;88568;-86
2022/12/29 03:00:15;;;;;;;1.17;0.90;;;20.10;65.00;;;;;;5006474;27;90458;-85
2022/12/29 03:03:26;;;;;;;1.42;0.90;;;20.10;64.80;;;;;;5008132;27;87183;-86
2022/12/29 03:06:38;;;;;;;2.50;0.90;;;20.10;64.90;;;;;;4976007;28;88879;-85
2022/12/29 03:09:06;;;;;;;1.40;0.98;;;20.10;64.70;;;;;;4899398;28;88707;-86
2022/12/29 03:18:00;;;;;;;2.08;0.98;;;20.10;64.90;;;;;;4897846;28;87419;-86
2022/12/29 03:20:34;;;;;;;1.85;1.20;;;20.10;64.90;;;;;;4859357;28;88790;-87
2022/12/29 03:23:02;;;;;;;0.98;0.80;;;20.10;64.90;;;;;;4860901;28;88033;-86
2022/12/29 03:25:32;;;;;;;0.90;0.80;;;20.10;65.00;;;;;;4853406;28;87577;-86
2022/12/29 03:28:34;;;;;;;1.35;1.05;;;20.00;65.00;;;;;;4860653;28;86839;-86
2022/12/29 03:31:00;;;;;;;1.98;1.10;;;20.10;64.90;;;;;;4857413;28;88894;-85
2022/12/29 03:33:29;;;;;;;1.00;0.80;;;20.00;65.00;;;;;;4860227;28;91454;-86
2022/12/29 03:35:59;;;;;;;1.58;1.00;;;20.00;64.90;;;;;;4859297;28;90465;-86
2022/12/29 03:38:35;;;;;;;2.13;1.08;;;20.00;65.10;;;;;;4860025;28;87849;-86
2022/12/29 03:41:05;;;;;;;0.98;0.82;;;20.00;64.90;;;;;;4860800;28;88157;-87
2022/12/29 03:43:31;;;;;;;0.70;0.70;;;20.00;65.20;;;;;;4855933;28;89456;-86
2022/12/29 03:45:57;;;;;;;2.28;0.77;;;20.00;64.90;;;;;;4889635;28;87598;-85
2022/12/29 03:48:22;;;;;;;1.60;1.15;;;20.00;65.00;;;;;;4889207;28;87470;-86
2022/12/29 03:50:48;;;;;;;1.30;0.77;;;20.00;65.20;;;;;;4889601;28;87860;-85
2022/12/29 03:53:14;;;;;;;2.00;0.95;;;20.00;65.00;;;;;;4892916;28;87901;-86
2022/12/29 03:55:39;;;;;;;0.82;0.63;;;20.00;65.00;;;;;;4893256;28;87855;-86
2022/12/29 03:58:05;;;;;;;1.23;0.77;;;19.90;65.00;;;;;;4937521;28;88462;-85
2022/12/29 04:00:30;;;;;;;1.38;0.73;;;20.00;65.40;;;;;;4950021;28;88846;-85
2022/12/29 04:02:56;;;;;;;1.63;1.13;;;19.90;65.20;;;;;;4951372;28;89082;-86
2022/12/29 04:05:22;;;;;;;1.02;0.82;;;19.90;65.20;;;;;;4949984;28;87864;-85
2022/12/29 04:07:47;;;;;;;1.10;0.90;;;19.90;65.00;;;;;;4968887;28;87671;-83
2022/12/29 04:10:13;;;;;;;1.52;0.80;;;19.90;64.80;;;;;;4994364;28;88409;-85
2022/12/29 04:12:41;;;;;;;1.20;0.90;;;19.90;64.90;;;;;;5012157;27;88323;-85
2022/12/29 04:15:07;;;;;;;1.50;0.90;;;19.90;65.40;;;;;;5012872;27;89475;-85
2022/12/29 04:17:33;;;;;;;1.05;0.80;;;20.00;64.90;;;;;;5013446;27;86653;-85
2022/12/29 04:20:59;;;;;;;0.90;0.77;;;19.90;65.00;;;;;;5012888;28;88638;-84
2022/12/29 04:22:47;;;;;;;1.10;0.90;;;19.90;65.00;;;;;;5004091;28;93480;-85
2022/12/29 04:25:12;;;;;;;1.52;0.77;;;19.90;65.00;;;;;;5012810;27;88018;-86
2022/12/29 04:27:38;;;;;;;1.40;0.98;;;19.90;65.00;;;;;;5002898;27;87668;-85
2022/12/29 04:30:04;;;;;;;1.20;1.10;;;19.90;64.90;;;;;;5011781;27;88028;-85
2022/12/29 04:32:30;;;;;;;1.77;0.80;;;19.90;64.80;;;;;;5011516;27;87838;-85
2022/12/29 04:34:55;;;;;;;1.10;0.75;;;19.90;64.90;;;;;;5012927;28;87353;-84
2022/12/29 04:37:21;;;;;;;0.80;0.77;;;19.90;64.90;;;;;;5011870;27;87073;-86
2022/12/29 04:39:46;;;;;;;1.77;0.98;;;19.90;64.90;;;;;;5011436;27;87838;-85
2022/12/29 04:42:12;;;;;;;1.50;0.73;;;19.90;64.90;;;;;;5012001;27;89622;-85
2022/12/29 04:44:37;;;;;;;1.27;0.60;;;19.90;64.90;;;;;;5012479;27;87404;-85
2022/12/29 04:47:03;;;;;;;1.25;0.98;;;19.90;64.70;;;;;;5012535;28;87024;-84
2022/12/29 04:49:29;;;;;;;0.90;0.73;;;19.90;64.90;;;;;;5011286;27;89911;-85
2022/12/29 04:51:54;;;;;;;1.23;0.80;;;19.90;65.00;;;;;;5011483;27;89370;-84
2022/12/29 04:54:20;;;;;;;1.23;0.90;;;19.90;64.70;;;;;;5011647;27;88049;-85
2022/12/29 04:56:45;;;;;;;1.42;0.90;;;19.80;64.70;;;;;;5010305;27;87359;-86
2022/12/29 04:59:11;;;;;;;1.60;0.75;;;19.80;64.80;;;;;;5012198;28;88047;-85
2022/12/29 05:01:37;;;;;;;1.35;0.80;;;19.80;65.00;;;;;;5010338;28;88438;-85
2022/12/29 05:04:02;;;;;;;0.80;0.80;;;19.80;65.00;;;;;;5010775;27;87106;-86
2022/12/29 05:06:28;;;;;;;0.93;0.68;;;19.80;64.90;;;;;;5012275;27;87599;-84
2022/12/29 05:08:53;;;;;;;1.10;0.90;;;19.80;65.00;;;;;;5011390;27;88016;-85
2022/12/29 05:11:19;;;;;;;1.27;1.08;;;19.80;65.10;;;;;;5012095;27;87454;-84
2022/12/29 05:13:46;;;;;;;1.02;0.70;;;19.80;65.00;;;;;;5011876;28;88494;-85
2022/12/29 05:16:14;;;;;;;1.20;0.68;;;19.80;65.00;;;;;;5011477;28;94645;-86
2022/12/29 05:18:40;;;;;;;0.80;0.80;;;19.80;65.10;;;;;;5010739;27;88261;-85
2022/12/29 05:21:05;;;;;;;0.90;0.70;;;19.80;65.00;;;;;;5011468;27;87688;-84
2022/12/29 05:23:31;;;;;;;0.90;0.90;;;19.80;64.90;;;;;;5002234;27;87355;-84
2022/12/29 05:25:56;;;;;;;1.20;0.88;;;19.80;66.00;;;;;;5040406;27;87255;-86
2022/12/29 05:28:22;;;;;;;0.70;0.65;;;19.80;65.00;;;;;;5011541;27;88805;-85
2022/12/29 05:30:50;;;;;;;1.05;0.82;;;19.80;65.20;;;;;;5011752;27;87301;-85
2022/12/29 05:33:16;;;;;;;0.93;0.80;;;19.80;65.10;;;;;;5010519;27;87521;-84
2022/12/29 05:35:42;;;;;;;0.80;0.77;;;19.80;65.00;;;;;;5011033;27;87900;-85
2022/12/29 05:38:07;;;;;;;0.95;0.73;;;19.70;65.00;;;;;;5011210;28;89262;-85
2022/12/29 05:40:33;;;;;;;0.63;0.50;;;19.70;65.10;;;;;;5011037;27;89706;-85
2022/12/29 05:42:58;;;;;;;1.10;0.68;;;19.70;65.10;;;;;;5010865;27;87649;-86
2022/12/29 05:45:24;;;;;;;1.00;0.80;;;19.70;64.80;;;;;;5011120;27;87345;-85
2022/12/29 05:47:50;;;;;;;0.93;0.77;;;19.70;64.90;;;;;;5010391;27;88456;-85
2022/12/29 05:50:15;;;;;;;0.70;0.70;;;19.70;64.90;;;;;;5011933;28;87437;-85
2022/12/29 05:52:41;;;;;;;0.98;0.75;;;19.70;65.00;;;;;;5011339;27;87691;-84
2022/12/29 05:55:07;;;;;;;3.40;0.80;;;19.70;64.70;;;;;;5010910;27;86702;-85
2022/12/29 05:57:33;;;;;;;1.10;0.80;;;19.70;64.90;;;;;;5010492;27;87637;-85
2022/12/29 05:59:58;;;;;;;1.48;0.80;;;19.70;64.70;;;;;;5010879;27;87816;-85
2022/12/29 06:02:24;;;;;;;1.10;0.60;;;19.70;64.70;;;;;;5010070;27;88758;-85
2022/12/29 06:04:51;;;;;;;1.25;0.70;;;19.70;64.70;;;;;;5010974;28;87540;-85
2022/12/29 06:07:19;;;;;;;0.82;0.50;;;19.70;64.80;;;;;;5010545;27;88224;-84
2022/12/29 06:09:45;;;;;;;1.05;0.80;;;19.70;65.30;;;;;;5010677;27;88204;-85
2022/12/29 06:12:10;;;;;;;0.77;0.70;;;19.70;65.00;;;;;;5010283;27;87485;-85
2022/12/29 06:14:36;;;;;;;0.82;0.70;;;19.70;65.10;;;;;;5010083;27;87176;-85
2022/12/29 06:17:02;;;;;;;0.70;0.63;;;19.70;65.00;;;;;;5011101;28;88664;-85
2022/12/29 06:19:27;;;;;;;1.60;0.88;;;19.70;65.00;;;;;;5010763;27;88293;-85
2022/12/29 06:21:53;;;;;;;0.75;0.60;;;19.70;65.10;;;;;;5010295;27;87463;-85
2022/12/29 06:24:19;;;;;;;1.00;0.70;;;19.60;64.90;;;;;;5000646;28;90749;-85
2022/12/29 06:26:45;;;;;;;1.00;0.82;;;19.60;64.80;;;;;;5009433;27;87945;-86
2022/12/29 06:29:11;;;;;;;0.73;0.68;;;19.60;64.90;;;;;;5011694;28;88606;-85
2022/12/29 06:31:36;;;;;;;0.85;0.75;;;19.60;65.10;;;;;;5010188;27;86954;-85
2022/12/29 06:34:02;;;;;;;1.23;0.90;;;19.60;65.00;;;;;;5009986;28;90072;-85
2022/12/29 06:36:28;;;;;;;0.90;0.73;;;19.60;64.90;;;;;;5010469;27;88688;-86
2022/12/29 06:38:54;;;;;;;0.70;0.60;;;19.60;65.00;;;;;;5009846;27;88928;-83
2022/12/29 06:41:20;;;;;;;0.60;0.60;;;19.80;64.60;;;;;;5009964;27;86915;-84
2022/12/29 06:43:46;;;;;;;3.17;0.75;;;19.80;64.30;;;;;;5010229;28;87532;-84
2022/12/29 06:46:11;;;;;;;3.78;0.88;;;20.00;64.00;;;;;;5009161;27;89211;-84
2022/12/29 06:48:37;;;;;;;1.67;0.80;;;20.10;63.60;;;;;;5008772;27;87574;-83
2022/12/29 06:51:03;;;;;;;0.93;0.88;;;20.10;63.70;;;;;;5008678;27;88315;-84
2022/12/29 06:53:28;;;;;;;1.60;0.60;;;20.30;63.60;;;;;;5009205;27;87257;-84
2022/12/29 06:55:54;;;;;;;1.83;0.60;;;20.50;63.30;;;;;;5009732;28;88219;-84
2022/12/29 06:58:20;;;;;;;0.80;0.63;;;20.60;62.80;;;;;;5009389;27;87542;-86
2022/12/29 07:00:45;;;;;;;0.70;0.60;;;20.80;62.40;;;;;;5008713;27;86895;-85
2022/12/29 07:03:11;;;;;;;3.03;0.90;;;20.90;62.50;;;;;;5007769;27;87837;-85
2022/12/29 07:05:36;;;;;;;1.15;0.80;;;21.00;62.00;;;;;;5006273;27;90442;-85
2022/12/29 07:08:02;;;;;;;0.80;0.70;;;21.00;62.00;;;;;;5008875;28;88937;-85
2022/12/29 07:10:28;;;;;;;1.23;0.80;;;21.10;61.90;;;;;;5008170;27;87326;-84
2022/12/29 07:12:53;;;;;;;1.33;0.90;;;21.10;61.70;;;;;;5008781;27;87336;-85
2022/12/29 07:15:19;;;;;;;1.38;0.80;;;21.10;61.60;;;;;;5007886;27;89000;-85
2022/12/29 07:17:45;;;;;;;1.70;1.05;;;21.10;61.80;;;;;;5008586;27;88917;-86
2022/12/29 07:20:10;;;;;;;2.85;0.98;;;21.10;61.70;;;;;;5009423;28;87036;-85
2022/12/29 07:22:36;;;;;;;4.20;1.10;;;21.10;62.00;;;;;;5007750;27;88387;-84
2022/12/29 07:25:03;;;;;;;1.23;0.80;;;21.10;61.80;;;;;;5006943;27;87408;-84
2022/12/29 07:27:28;;;;;;;1.45;1.00;;;21.00;61.70;;;;;;5006325;27;87972;-85
2022/12/29 07:29:54;;;;;;;4.05;1.30;;;21.00;62.00;;;;;;5006571;28;88472;-85
2022/12/29 07:32:20;;;;;;;2.75;1.27;;;21.10;61.20;;;;;;5015111;28;86761;-84
2022/12/29 07:34:47;;;;;;;88.28;17.40;;;21.00;61.40;;;;;;5006574;28;88528;-85
2022/12/29 07:37:14;;;;;;;92.97;24.15;;;21.00;61.50;;;;;;5004945;28;88733;-85
2022/12/29 07:39:40;;;;;;;72.63;15.80;;;20.90;61.10;;;;;;5004675;28;88607;-84
2022/12/29 07:42:05;;;;;;;44.08;9.60;;;20.80;61.40;;;;;;5008884;28;87460;-86
2022/12/29 07:44:31;;;;;;;27.10;6.75;;;20.80;61.60;;;;;;5007366;28;88332;-86
2022/12/29 07:46:57;;;;;;;36.47;10.02;;;20.80;62.10;;;;;;5006454;28;88401;-86
2022/12/29 07:49:24;;;;;;;41.03;9.57;;;20.80;61.70;;;;;;5005652;28;87430;-85
2022/12/29 07:51:50;;;;;;;45.25;10.55;;;20.80;62.10;;;;;;5006875;28;87931;-85
2022/12/29 07:54:18;;;;;;;33.22;9.50;;;20.90;62.10;;;;;;5005977;28;88067;-87
2022/12/29 07:56:44;;;;;;;36.67;9.48;;;21.00;62.00;;;;;;5006726;28;89087;-86
2022/12/29 07:59:11;;;;;;;37.25;9.52;;;21.10;62.10;;;;;;5007432;28;87002;-87
2022/12/29 08:01:37;;;;;;;34.25;9.70;;;21.10;61.90;;;;;;5007781;28;87843;-87
2022/12/29 08:04:03;;;;;;;30.83;9.15;;;21.20;61.90;;;;;;5009302;27;88398;-86
2022/12/29 08:06:30;;;;;;;32.90;9.25;;;21.30;62.30;;;;;;5008620;27;89179;-86
2022/12/29 08:08:56;;;;;;;26.73;9.02;;;21.30;61.60;;;;;;5010605;27;87308;-86
2022/12/29 08:11:22;;;;;;;31.23;8.25;;;21.30;62.40;;;;;;5008315;27;87062;-86
2022/12/29 08:13:50;;;;;;;32.38;8.73;;;21.40;62.10;;;;;;5007984;28;88205;-85
2022/12/29 08:16:16;;;;;;;30.48;8.85;;;21.40;61.70;;;;;;5008577;27;88410;-86
2022/12/29 08:18:41;;;;;;;34.30;10.10;;;21.30;61.70;;;;;;5008167;27;87429;-86
2022/12/29 08:21:07;;;;;;;28.83;8.25;;;21.30;61.70;;;;;;5007431;28;90169;-86
2022/12/29 08:23:33;;;;;;;25.00;7.88;;;21.20;62.10;;;;;;5001867;27;90661;-87
2022/12/29 08:25:59;;;;;;;35.08;8.70;;;21.20;62.30;;;;;;4958781;27;88693;-88
2022/12/29 08:28:25;;;;;;;29.85;9.23;;;21.20;62.60;;;;;;5028617;27;88362;-89
2022/12/29 08:30:51;;;;;;;27.88;7.88;;;21.20;62.90;;;;;;5008600;27;87560;-87
2022/12/29 08:33:17;;;;;;;28.77;8.82;;;21.20;62.60;;;;;;5009884;27;88115;-90
2022/12/29 08:35:48;;;;;;;32.08;9.15;;;21.30;62.90;;;;;;5010517;27;88012;-88
2022/12/29 08:38:13;;;;;;;36.90;8.82;;;21.30;62.70;;;;;;5011934;28;87618;-86
2022/12/29 08:40:39;;;;;;;31.08;7.55;;;21.30;62.40;;;;;;5013590;27;87655;-86
2022/12/29 08:43:05;;;;;;;31.52;8.85;;;21.40;62.30;;;;;;5013716;27;88656;-85
2022/12/29 08:45:31;;;;;;;28.83;8.93;;;21.40;61.60;;;;;;5013628;27;87481;-85
2022/12/29 08:47:56;;;;;;;33.53;9.05;;;21.40;59.90;;;;;;5014179;27;87075;-86
2022/12/29 08:50:22;;;;;;;47.60;12.07;;;21.50;59.20;;;;;;5013764;27;88398;-86
2022/12/29 08:52:48;;;;;;;34.80;11.63;;;21.50;58.40;;;;;;5012756;28;89083;-87
2022/12/29 08:55:13;;;;;;;39.63;12.05;;;21.40;57.00;;;;;;5012608;27;89870;-88
2022/12/29 08:57:39;;;;;;;42.95;13.30;;;21.40;56.70;;;;;;5013380;27;87453;-86
2022/12/29 09:00:05;;;;;;;44.75;14.38;;;21.40;56.50;;;;;;5012052;27;87409;-87
2022/12/29 09:02:31;;;;;;;42.25;14.52;;;21.40;56.20;;;;;;5011042;27;87703;-85
2022/12/29 09:04:57;;;;;;;39.92;13.45;;;21.50;55.60;;;;;;5007935;28;87832;-86
2022/12/29 09:07:23;;;;;;;42.60;13.52;;;21.50;56.30;;;;;;5009981;28;89650;-87
2022/12/29 09:09:49;;;;;;;47.78;13.18;;;21.50;57.00;;;;;;5010957;27;89458;-87
2022/12/29 09:12:18;;;;;;;42.25;12.98;;;21.50;57.50;;;;;;5009506;27;88189;-86
2022/12/29 09:14:46;;;;;;;34.95;11.40;;;21.50;57.90;;;;;;5011046;27;87754;-85
2022/12/29 09:19:56;;;;;;;35.85;11.30;;;21.50;57.90;;;;;;5009901;28;90673;-85
2022/12/29 09:22:21;;;;;;;33.45;11.45;;;21.50;58.10;;;;;;5010390;27;89014;-86
2022/12/29 09:24:47;;;;;;;40.92;13.25;;;21.50;58.50;;;;;;5001559;27;87241;-84
2022/12/29 09:27:13;;;;;;;35.40;12.18;;;21.50;58.40;;;;;;5010860;27;87482;-86
2022/12/29 09:29:38;;;;;;;29.60;10.70;;;21.50;58.60;;;;;;5010856;27;87435;-86
2022/12/29 09:32:04;;;;;;;37.88;11.07;;;21.60;58.80;;;;;;5012286;28;88672;-86
2022/12/29 09:34:29;;;;;;;36.75;10.57;;;21.60;58.80;;;;;;5011260;27;88341;-85
2022/12/29 09:36:56;;;;;;;32.92;10.32;;;21.60;58.90;;;;;;5008805;27;87402;-85
2022/12/29 09:39:22;;;;;;;33.92;10.27;;;21.60;59.10;;;;;;5009522;27;86935;-85
2022/12/29 09:42:01;;;;;;;37.58;10.18;;;21.60;59.00;;;;;;5010192;27;89049;-85
2022/12/29 09:44:55;;;;;;;31.20;10.80;;;21.60;59.00;;;;;;5010233;27;89088;-85
2022/12/29 09:47:22;;;;;;;38.35;11.30;;;21.60;59.10;;;;;;5010118;27;87314;-86
2022/12/29 09:49:53;;;;;;;29.55;9.93;;;21.60;59.50;;;;;;5010028;28;87452;-87
2022/12/29 09:52:29;;;;;;;30.42;9.85;;;21.60;59.50;;;;;;5006583;28;92021;-87
2022/12/29 09:55:03;;;;;;;31.73;9.90;;;21.60;59.40;;;;;;5006448;27;87301;-85
2022/12/29 09:57:36;;;;;;;27.90;9.30;;;21.60;59.50;;;;;;5006986;27;86999;-84
2022/12/29 10:00:17;;;;;;;28.48;10.10;;;21.60;59.60;;;;;;5008018;27;87049;-86
2022/12/29 10:02:58;;;;;;;31.50;9.50;;;21.60;59.70;;;;;;5007886;27;88022;-86
2022/12/29 10:05:46;;;;;;;25.83;9.45;;;21.60;59.40;;;;;;5008120;27;87917;-85
2022/12/29 10:08:30;;;;;;;22.63;7.70;;;21.70;59.30;;;;;;5009198;28;88561;-84
2022/12/29 10:11:06;;;;;;;22.75;8.30;;;21.70;59.30;;;;;;5011436;28;91379;-85
2022/12/29 10:13:58;;;;;;;25.30;8.50;;;21.70;59.00;;;;;;5010795;27;89086;-84
2022/12/29 10:16:38;;;;;;;19.08;7.88;;;21.70;59.30;;;;;;5010354;27;88318;-86
2022/12/29 10:19:15;;;;;;;20.25;7.85;;;21.80;59.20;;;;;;5010284;27;87552;-86
2022/12/29 10:22:17;;;;;;;20.23;7.63;;;21.90;59.30;;;;;;5009153;27;88017;-86
2022/12/29 10:24:46;;;;;;;28.00;8.07;;;21.90;59.20;;;;;;5010879;27;88309;-85
2022/12/29 10:27:15;;;;;;;19.43;7.00;;;22.00;59.10;;;;;;5008639;27;87558;-86
2022/12/29 10:29:45;;;;;;;;;;;22.10;59.00;;;;;;5010689;27;87037;-87
2022/12/29 10:32:27;;;;;;;21.15;7.65;;;22.20;59.00;;;;;;5029760;27;90267;-86
2022/12/29 10:34:59;;;;;;;23.52;8.15;;;22.20;58.90;;;;;;5006197;28;95662;-86
2022/12/29 10:37:39;;;;;;;21.52;8.30;;;22.20;58.90;;;;;;5007828;28;88296;-85
2022/12/29 10:40:17;;;;;;;23.15;7.47;;;22.20;59.00;;;;;;5007747;28;87522;-86
2022/12/29 10:42:47;;;;;;;18.58;7.30;;;22.20;59.00;;;;;;5006481;28;89903;-85
2022/12/29 10:45:16;;;;;;;22.77;7.13;;;22.10;58.90;;;;;;5006392;28;88200;-86
2022/12/29 10:48:02;;;;;;;20.50;7.20;;;22.20;58.80;;;;;;5005744;28;87565;-85
2022/12/29 10:50:29;;;;;;;19.08;7.00;;;22.10;59.10;;;;;;5006671;28;87984;-84
2022/12/29 10:53:01;;;;;;;22.27;7.30;;;22.10;59.10;;;;;;5006563;28;87002;-86
2022/12/29 10:55:37;;;;;;;19.00;6.45;;;22.10;58.90;;;;;;5007627;28;88641;-85
2022/12/29 10:58:06;;;;;;;22.10;8.20;;;22.10;59.10;;;;;;5005658;28;88736;-86
2022/12/29 11:00:40;;;;;;;21.33;6.93;;;22.00;59.00;;;;;;4998918;28;88240;-86
2022/12/29 11:03:36;;;;;;;20.25;6.80;;;22.00;59.50;;;;;;5018771;27;87648;-84
2022/12/29 11:06:14;;;;;;;17.98;6.90;;;22.10;59.50;;;;;;5008917;27;89183;-85
2022/12/29 11:08:50;;;;;;;19.02;7.03;;;22.00;59.70;;;;;;5010798;27;88917;-87
2022/12/29 11:11:25;;;;;;;19.08;7.30;;;22.00;60.10;;;;;;5010027;28;88333;-85
2022/12/29 11:14:02;;;;;;;20.58;6.88;;;22.00;60.30;;;;;;5009010;28;91109;-86
2022/12/29 11:16:33;;;;;;;18.65;5.68;;;22.00;60.70;;;;;;5006169;28;91321;-84
2022/12/29 11:19:00;;;;;;;15.57;6.43;;;22.00;59.30;;;;;;5008381;27;88184;-84
2022/12/29 11:21:41;;;;;;;14.55;5.20;;;22.20;59.40;;;;;;5006727;27;87366;-85
2022/12/29 11:24:26;;;;;;;14.75;6.43;;;22.20;59.10;;;;;;5005812;27;88418;-86
2022/12/29 11:26:57;;;;;;;17.98;5.80;;;22.20;59.60;;;;;;5008321;27;88940;-84
2022/12/29 11:29:28;;;;;;;18.17;6.10;;;22.20;59.90;;;;;;5003537;27;91439;-87
2022/12/29 11:31:58;;;;;;;12.52;5.60;;;22.20;60.10;;;;;;5008728;28;87235;-88
2022/12/29 11:34:33;;;;;;;16.90;6.18;;;22.20;60.00;;;;;;5008684;27;87917;-86
2022/12/29 11:37:16;;;;;;;14.18;5.93;;;22.20;60.20;;;;;;5010488;27;88280;-86
2022/12/29 11:39:54;;;;;;;14.60;5.85;;;22.10;60.40;;;;;;5009863;27;88822;-84
2022/12/29 11:42:23;;;;;;;15.45;5.93;;;22.10;60.40;;;;;;5007775;27;86921;-87
2022/12/29 11:44:51;;;;;;;17.23;5.85;;;22.10;60.60;;;;;;5006712;27;86657;-86
2022/12/29 11:47:30;;;;;;;15.70;6.10;;;22.10;60.60;;;;;;5006134;28;90687;-87
2022/12/29 11:50:03;;;;;;;18.05;5.45;;;22.10;59.90;;;;;;5008007;28;92877;-86
2022/12/29 11:52:35;;;;;;;19.05;6.30;;;22.00;60.40;;;;;;5005384;27;88001;-86
2022/12/29 11:55:04;;;;;;;17.08;5.15;;;22.00;61.00;;;;;;5007429;27;87524;-86
2022/12/29 11:57:35;;;;;;;19.58;5.30;;;22.00;58.20;;;;;;5008328;27;87368;-86
2022/12/29 12:00:14;;;;;;;15.80;5.20;;;22.00;59.80;;;;;;5008499;27;87857;-88
2022/12/29 12:02:45;;;;;;;16.70;5.05;;;22.00;60.50;;;;;;5007795;27;87431;-86
2022/12/29 12:05:22;;;;;;;13.95;4.03;;;21.90;61.50;;;;;;5008567;28;88297;-84
2022/12/29 12:08:02;;;;;;;11.73;4.45;;;22.00;59.60;;;;;;5006786;28;93464;-85
2022/12/29 12:10:38;;;;;;;18.83;5.35;;;22.00;58.30;;;;;;5006913;27;87775;-87
2022/12/29 12:13:29;;;;;;;13.32;4.63;;;22.10;58.90;;;;;;5008120;27;87524;-86
2022/12/29 12:16:08;;;;;;;13.98;4.68;;;22.10;58.20;;;;;;5011157;27;87735;-85
2022/12/29 12:18:58;;;;;;;12.47;4.47;;;22.10;59.00;;;;;;5010566;27;89715;-85
2022/12/29 12:21:47;;;;;;;10.80;4.05;;;22.00;59.70;;;;;;5010701;27;88816;-87
2022/12/29 12:24:54;;;;;;;12.07;4.90;;;22.10;59.90;;;;;;5011081;27;87414;-86
2022/12/29 12:27:31;;;;;;;13.90;4.63;;;22.20;60.20;;;;;;4960940;28;90445;-85
2022/12/29 12:30:12;;;;;;;11.15;3.85;;;22.20;60.10;;;;;;4977142;28;88490;-85
2022/12/29 12:32:51;;;;;;;10.27;4.15;;;22.40;60.10;;;;;;4977024;28;87612;-86
2022/12/29 12:35:42;;;;;;;13.02;4.78;;;22.50;59.90;;;;;;4978642;28;87052;-87
2022/12/29 12:38:30;;;;;;;13.80;4.30;;;22.60;60.50;;;;;;4925424;28;92133;-85
2022/12/29 12:41:01;;;;;;;13.23;4.30;;;22.60;59.90;;;;;;4928537;28;93034;-87
2022/12/29 12:43:32;;;;;;;13.05;4.32;;;22.70;60.10;;;;;;4926060;28;88044;-87
2022/12/29 12:46:16;;;;;;;13.38;3.50;;;22.70;60.20;;;;;;4928827;28;88238;-85
2022/12/29 12:48:50;;;;;;;14.63;4.55;;;22.70;60.10;;;;;;4927359;28;89372;-85
2022/12/29 12:51:49;;;;;;;12.13;4.25;;;22.60;60.00;;;;;;4928373;28;87483;-86
2022/12/29 12:54:17;;;;;;;;;;;22.60;60.20;;;;;;4928925;28;87833;-86
2022/12/29 12:57:07;;;;;;;9.02;3.53;;;22.60;60.20;;;;;;4931107;28;88093;-86
2022/12/29 12:59:44;;;;;;;16.10;5.07;;;22.50;60.20;;;;;;4929189;28;89736;-87
2022/12/29 13:02:36;;;;;;;16.95;4.40;;;22.40;59.20;;;;;;4935294;28;88129;-87
2022/12/29 13:05:20;;;;;;;12.93;4.18;;;22.30;58.50;;;;;;4961808;28;92178;-85
2022/12/29 13:08:00;;;;;;;16.10;4.90;;;22.30;58.80;;;;;;4962923;28;88049;-86
2022/12/29 13:10:31;;;;;;;44.53;12.80;;;22.30;58.60;;;;;;4962241;28;87898;-87
2022/12/29 13:13:07;;;;;;;54.45;15.38;;;22.30;58.80;;;;;;4959493;28;88830;-86
2022/12/29 13:15:51;;;;;;;48.35;12.50;;;22.30;59.20;;;;;;4990694;27;88597;-87
2022/12/29 13:18:44;;;;;;;39.78;11.85;;;22.30;59.50;;;;;;5010592;27;87346;-88
2022/12/29 13:21:25;;;;;;;35.45;9.93;;;22.40;59.60;;;;;;5011095;27;87740;-87
2022/12/29 13:23:56;;;;;;;39.03;11.23;;;22.40;59.80;;;;;;5011829;27;88364;-90
2022/12/29 13:26:43;;;;;;;30.35;9.68;;;22.40;60.20;;;;;;5010474;27;87642;-86
2022/12/29 13:29:18;;;;;;;31.30;9.20;;;22.50;60.00;;;;;;5011340;28;87369;-87
2022/12/29 13:32:02;;;;;;;33.25;9.52;;;22.60;59.50;;;;;;5012991;28;92205;-88
2022/12/29 13:34:39;;;;;;;28.88;9.32;;;22.60;59.90;;;;;;5011831;28;93820;-87
2022/12/29 13:37:12;;;;;;;25.17;7.85;;;22.60;61.00;;;;;;5010698;27;88400;-84
2022/12/29 13:39:52;;;;;;;25.65;8.57;;;22.60;61.70;;;;;;5010288;28;93997;-88
2022/12/29 13:42:21;;;;;;;23.95;7.68;;;22.70;58.20;;;;;;5011121;27;87789;-88